createdAt,value
2023-04-18T00:01:33.948Z,97080.91
2023-04-18T00:03:40.736Z,97077.75
2023-04-18T00:05:48.311Z,97081.44
2023-04-18T00:07:53.569Z,97076.72
2023-04-18T00:09:58.338Z,97077.75
2023-04-18T00:12:04.455Z,97080.66
2023-04-18T00:14:10.669Z,97082.53
2023-04-18T00:16:15.902Z,97079.63
2023-04-18T00:18:26.799Z,97072.78
2023-04-18T00:20:31.710Z,97073.06
2023-04-18T00:22:36.635Z,97080.16
2023-04-18T00:24:43.253Z,97077.78
2023-04-18T00:26:49.092Z,97073.56
2023-04-18T00:28:54.299Z,97072.28
2023-04-18T00:30:59.202Z,97065.41
2023-04-18T00:33:04.767Z,97069.09
2023-04-18T00:35:12.897Z,97069.38
2023-04-18T00:37:18.161Z,97066.72
2023-04-18T00:39:23.011Z,97071.72
2023-04-18T00:41:28.662Z,97070.19
2023-04-18T00:43:35.275Z,97081.00
2023-04-18T00:45:40.134Z,97074.91
2023-04-18T00:47:44.915Z,97067.00
2023-04-18T00:49:51.862Z,97072.28
2023-04-18T00:51:59.867Z,97072.56
2023-04-18T00:54:05.933Z,97070.97
2023-04-18T00:56:11.411Z,97078.09
2023-04-18T00:58:16.967Z,97075.72
2023-04-18T01:00:22.104Z,97076.00
2023-04-18T01:02:27.836Z,97078.13
2023-04-18T01:04:33.155Z,97081.81
2023-04-18T01:06:39.260Z,97082.09
2023-04-18T01:08:48.093Z,97082.63
2023-04-18T01:10:53.385Z,97079.19
2023-04-18T01:13:13.357Z,97076.03
2023-04-18T01:15:18.650Z,97074.44
2023-04-18T01:17:23.589Z,97072.84
2023-04-18T01:19:30.065Z,97082.91
2023-04-18T01:21:37.593Z,97076.84
2023-04-18T01:23:42.969Z,97075.50
2023-04-18T01:25:52.145Z,97074.19
2023-04-18T01:27:58.992Z,97071.56
2023-04-18T01:30:05.636Z,97071.03
2023-04-18T01:32:10.510Z,97072.88
2023-04-18T01:34:15.642Z,97067.34
2023-04-18T01:36:20.765Z,97071.84
2023-04-18T01:38:25.691Z,97076.31
2023-04-18T01:40:32.373Z,97069.47
2023-04-18T01:42:40.754Z,97067.06
2023-04-18T01:44:48.968Z,97062.88
2023-04-18T01:46:53.963Z,97060.25
2023-04-18T01:48:59.169Z,97067.34
2023-04-18T01:51:03.962Z,97069.19
2023-04-18T01:53:09.401Z,97059.69
2023-04-18T01:55:14.536Z,97056.28
2023-04-18T01:57:19.404Z,97052.84
2023-04-18T01:59:26.977Z,97053.91
2023-04-18T02:01:32.075Z,97057.59
2023-04-18T02:03:37.872Z,97053.38
2023-04-18T02:05:43.100Z,97046.53
2023-04-18T02:07:50.401Z,97055.22
2023-04-18T02:09:55.793Z,97049.16
2023-04-18T02:12:02.163Z,97047.31
2023-04-18T02:14:07.559Z,97055.22
2023-04-18T02:16:17.099Z,97053.63
2023-04-18T02:18:22.273Z,97055.75
2023-04-18T02:20:27.283Z,97053.91
2023-04-18T02:22:32.179Z,97063.16
2023-04-18T02:24:38.694Z,97053.66
2023-04-18T02:26:43.522Z,97066.34
2023-04-18T02:28:48.294Z,97065.53
2023-04-18T02:30:53.154Z,97066.56
2023-04-18T02:33:01.138Z,97067.09
2023-04-18T02:35:06.462Z,97068.97
2023-04-18T02:37:11.485Z,97073.72
2023-04-18T02:39:18.312Z,97074.78
2023-04-18T02:41:23.174Z,97080.31
2023-04-18T02:43:28.098Z,97072.41
2023-04-18T02:45:33.148Z,97074.50
2023-04-18T02:47:51.267Z,97076.34
2023-04-18T02:50:01.912Z,97076.09
2023-04-18T02:52:07.142Z,97071.88
2023-04-18T02:54:12.365Z,97075.56
2023-04-18T02:56:29.873Z,97075.06
2023-04-18T02:58:58.435Z,97067.94
2023-04-18T03:01:22.719Z,97071.63
2023-04-18T03:03:33.043Z,97067.38
2023-04-18T03:05:55.004Z,97063.97
2023-04-18T03:08:00.240Z,97067.38
2023-04-18T03:10:06.126Z,97065.81
2023-04-18T03:12:13.617Z,97071.88
2023-04-18T03:14:19.932Z,97073.75
2023-04-18T03:16:29.538Z,97068.69
2023-04-18T03:18:34.653Z,97066.06
2023-04-18T03:20:41.172Z,97071.34
2023-04-18T03:22:49.073Z,97068.97
2023-04-18T03:25:00.254Z,97064.78
2023-04-18T03:27:22.069Z,97068.41
2023-04-18T03:29:27.202Z,97063.16
2023-04-18T03:31:33.727Z,97061.28
2023-04-18T03:33:39.380Z,97062.91
2023-04-18T03:35:47.964Z,97070.03
2023-04-18T03:37:55.851Z,97065.78
2023-04-18T03:40:08.301Z,97069.19
2023-04-18T03:42:14.156Z,97070.28
2023-04-18T03:44:20.213Z,97067.09
2023-04-18T03:46:25.174Z,97068.94
2023-04-18T03:48:36.201Z,97057.84
2023-04-18T03:50:45.567Z,97061.84
2023-04-18T03:52:50.516Z,97060.25
2023-04-18T03:54:58.976Z,97058.66
2023-04-18T03:57:09.433Z,97056.53
2023-04-18T03:59:15.611Z,97061.81
2023-04-18T04:01:24.552Z,97062.88
2023-04-18T04:03:31.187Z,97066.31
2023-04-18T04:05:36.244Z,97072.63
2023-04-18T04:07:41.237Z,97064.19
2023-04-18T04:09:46.414Z,97072.13
2023-04-18T04:11:53.925Z,97073.44
2023-04-18T04:13:58.827Z,97069.19
2023-04-18T04:16:10.902Z,97069.47
2023-04-18T04:18:16.275Z,97079.50
2023-04-18T04:20:25.109Z,97076.03
2023-04-18T04:22:37.861Z,97066.84
2023-04-18T04:24:43.014Z,97073.16
2023-04-18T04:26:53.604Z,97070.78
2023-04-18T04:29:02.384Z,97077.09
2023-04-18T04:31:10.529Z,97073.94
2023-04-18T04:33:16.818Z,97078.66
2023-04-18T04:35:21.840Z,97078.41
2023-04-18T04:37:26.810Z,97083.16
2023-04-18T04:40:01.045Z,97083.69
2023-04-18T04:42:12.364Z,97086.31
2023-04-18T04:44:28.491Z,97094.22
2023-04-18T04:46:34.217Z,97082.91
2023-04-18T04:48:42.987Z,97093.44
2023-04-18T04:50:55.054Z,97092.13
2023-04-18T04:53:00.195Z,97091.03
2023-04-18T04:55:05.343Z,97092.91
2023-04-18T04:57:13.268Z,97095.28
2023-04-18T04:59:18.276Z,97095.28
2023-04-18T05:01:24.094Z,97102.41
2023-04-18T05:03:29.586Z,97095.28
2023-04-18T05:05:36.107Z,97098.16
2023-04-18T05:07:41.157Z,97092.91
2023-04-18T05:09:46.111Z,97095.00
2023-04-18T05:11:51.426Z,97102.91
2023-04-18T05:13:59.845Z,97099.47
2023-04-18T05:16:05.100Z,97112.13
2023-04-18T05:18:10.039Z,97109.25
2023-04-18T05:20:15.296Z,97103.19
2023-04-18T05:22:20.332Z,97112.69
2023-04-18T05:24:25.320Z,97114.28
2023-04-18T05:26:30.361Z,97120.06
2023-04-18T05:28:36.050Z,97118.22
2023-04-18T05:30:44.117Z,97113.19
2023-04-18T05:32:49.152Z,97116.66
2023-04-18T05:34:54.003Z,97113.19
2023-04-18T05:36:58.857Z,97110.81
2023-04-18T05:39:04.369Z,97115.06
2023-04-18T05:41:09.370Z,97109.78
2023-04-18T05:43:14.380Z,97114.28
2023-04-18T05:45:19.317Z,97117.94
2023-04-18T05:47:28.694Z,97124.81
2023-04-18T05:49:33.874Z,97120.06
2023-04-18T05:51:38.773Z,97121.91
2023-04-18T05:53:43.603Z,97120.84
2023-04-18T05:55:49.202Z,97124.81
2023-04-18T05:57:54.028Z,97123.50
2023-04-18T05:59:58.998Z,97122.97
2023-04-18T06:02:03.879Z,97126.69
2023-04-18T06:04:11.820Z,97136.72
2023-04-18T06:06:17.166Z,97126.41
2023-04-18T06:08:25.048Z,97128.03
2023-04-18T06:10:30.222Z,97133.31
2023-04-18T06:12:35.419Z,97131.72
2023-04-18T06:14:40.315Z,97130.97
2023-04-18T06:16:45.298Z,97127.53
2023-04-18T06:18:50.388Z,97135.47
2023-04-18T06:20:57.788Z,97136.25
2023-04-18T06:23:02.668Z,97140.75
2023-04-18T06:25:08.940Z,97142.59
2023-04-18T06:27:27.919Z,97133.09
2023-04-18T06:29:38.341Z,97139.44
2023-04-18T06:31:46.364Z,97143.38
2023-04-18T06:33:51.305Z,97143.13
2023-04-18T06:35:59.393Z,97139.97
2023-04-18T06:38:04.151Z,97142.06
2023-04-18T06:40:10.553Z,97147.34
2023-04-18T06:42:15.731Z,97148.13
2023-04-18T06:44:22.724Z,97148.91
2023-04-18T06:46:27.994Z,97140.22
2023-04-18T06:48:33.102Z,97140.22
2023-04-18T06:50:38.123Z,97144.97
2023-04-18T06:52:47.559Z,97151.31
2023-04-18T06:54:52.414Z,97147.88
2023-04-18T06:56:57.541Z,97153.94
2023-04-18T06:59:02.381Z,97148.94
2023-04-18T07:01:07.623Z,97153.69
2023-04-18T07:03:13.789Z,97141.53
2023-04-18T07:05:18.941Z,97149.19
2023-04-18T07:07:23.713Z,97147.09
2023-04-18T07:09:31.263Z,97152.34
2023-04-18T07:11:35.985Z,97151.03
2023-04-18T07:13:40.709Z,97151.81
2023-04-18T07:15:45.475Z,97150.25
2023-04-18T07:17:50.376Z,97151.56
2023-04-18T07:19:55.149Z,97151.03
2023-04-18T07:22:00.106Z,97148.66
2023-04-18T07:24:04.837Z,97152.88
2023-04-18T07:26:13.525Z,97156.03
2023-04-18T07:28:18.231Z,97147.84
2023-04-18T07:30:23.157Z,97153.13
2023-04-18T07:32:28.051Z,97149.69
2023-04-18T07:34:34.012Z,97153.38
2023-04-18T07:36:40.482Z,97148.34
2023-04-18T07:38:45.402Z,97154.41
2023-04-18T07:40:50.420Z,97158.09
2023-04-18T07:42:58.057Z,97160.97
2023-04-18T07:45:02.814Z,97158.34
2023-04-18T07:47:12.735Z,97160.44
2023-04-18T07:49:17.767Z,97159.63
2023-04-18T07:51:25.544Z,97162.81
2023-04-18T07:53:30.299Z,97166.75
2023-04-18T07:55:35.272Z,97164.66
2023-04-18T07:57:40.178Z,97165.97
2023-04-18T07:59:47.794Z,97169.13
2023-04-18T08:01:52.767Z,97170.44
2023-04-18T08:04:01.795Z,97170.69
2023-04-18T08:06:07.346Z,97176.78
2023-04-18T08:08:13.692Z,97171.22
2023-04-18T08:10:18.560Z,97175.16
2023-04-18T08:12:23.341Z,97172.50
2023-04-18T08:14:28.481Z,97175.41
2023-04-18T08:16:36.233Z,97174.38
2023-04-18T08:18:40.957Z,97174.63
2023-04-18T08:20:45.779Z,97174.34
2023-04-18T08:25:05.451Z,97173.28
2023-04-18T08:27:10.676Z,97169.31
2023-04-18T08:29:15.958Z,97170.34
2023-04-18T08:31:20.895Z,97172.72
2023-04-18T08:33:28.606Z,97177.47
2023-04-18T08:35:34.139Z,97173.22
2023-04-18T08:37:39.026Z,97165.50
2023-04-18T08:39:43.745Z,97168.41
2023-04-18T08:41:57.359Z,97173.94
2023-04-18T08:44:02.434Z,97171.56
2023-04-18T08:46:08.114Z,97180.53
2023-04-18T08:48:15.344Z,97178.13
2023-04-18T08:50:23.320Z,97173.34
2023-04-18T08:52:31.060Z,97171.50
2023-04-18T08:54:38.266Z,97177.28
2023-04-18T08:56:42.978Z,97177.03
2023-04-18T08:58:48.299Z,97178.59
2023-04-18T09:00:54.501Z,97185.22
2023-04-18T09:02:59.677Z,97177.28
2023-04-18T09:05:13.902Z,97188.38
2023-04-18T09:07:22.303Z,97193.38
2023-04-18T09:09:27.745Z,97186.75
2023-04-18T09:11:34.701Z,97191.00
2023-04-18T09:13:47.534Z,97188.06
2023-04-18T09:15:59.337Z,97184.63
2023-04-18T09:18:05.875Z,97190.16
2023-04-18T09:20:13.142Z,97191.47
2023-04-18T09:22:18.470Z,97187.47
2023-04-18T09:24:28.608Z,97196.72
2023-04-18T09:26:36.748Z,97187.19
2023-04-18T09:28:41.719Z,97198.00
2023-04-18T09:30:46.767Z,97196.66
2023-04-18T09:33:00.813Z,97197.69
2023-04-18T09:35:06.445Z,97194.50
2023-04-18T09:37:12.884Z,97195.53
2023-04-18T09:39:32.126Z,97195.53
2023-04-18T09:41:36.930Z,97197.91
2023-04-18T09:43:42.096Z,97190.44
2023-04-18T09:45:47.028Z,97190.97
2023-04-18T09:47:51.922Z,97198.38
2023-04-18T09:49:57.138Z,97188.56
2023-04-18T09:52:04.303Z,97188.00
2023-04-18T09:54:09.761Z,97194.88
2023-04-18T09:56:22.955Z,97192.25
2023-04-18T09:58:33.236Z,97191.97
2023-04-18T10:00:40.408Z,97190.13
2023-04-18T10:02:52.277Z,97184.00
2023-04-18T10:04:58.788Z,97186.09
2023-04-18T10:07:04.934Z,97183.19
2023-04-18T10:09:12.213Z,97189.28
2023-04-18T10:11:20.343Z,97184.00
2023-04-18T10:13:26.325Z,97194.31
2023-04-18T10:15:32.635Z,97185.25
2023-04-18T10:17:56.269Z,97193.22
2023-04-18T10:20:11.247Z,97181.84
2023-04-18T10:22:16.160Z,97183.44
2023-04-18T10:24:48.833Z,97186.06
2023-04-18T10:26:56.161Z,97176.25
2023-04-18T10:29:01.944Z,97182.88
2023-04-18T10:31:08.016Z,97172.28
2023-04-18T10:33:32.272Z,97184.75
2023-04-18T10:35:40.409Z,97171.22
2023-04-18T10:37:53.206Z,97176.50
2023-04-18T10:40:06.087Z,97173.63
2023-04-18T10:42:13.438Z,97171.47
2023-04-18T10:44:22.501Z,97181.50
2023-04-18T10:46:32.436Z,97177.00
2023-04-18T10:48:39.396Z,97169.56
2023-04-18T10:51:15.826Z,97174.56
2023-04-18T10:53:20.735Z,97169.00
2023-04-18T10:55:29.583Z,97174.53
2023-04-18T10:57:44.548Z,97168.97
2023-04-18T10:59:52.510Z,97164.94
2023-04-18T11:01:59.543Z,97165.75
2023-04-18T11:04:04.714Z,97171.81
2023-04-18T11:06:10.117Z,97164.66
2023-04-18T11:08:26.650Z,97164.16
2023-04-18T11:10:31.610Z,97167.09
2023-04-18T11:12:37.622Z,97161.00
2023-04-18T11:14:46.288Z,97160.47
2023-04-18T11:16:51.282Z,97163.13
2023-04-18T11:18:56.080Z,97160.47
2023-04-18T11:21:03.979Z,97162.63
2023-04-18T11:23:20.717Z,97158.19
2023-04-18T11:25:32.117Z,97157.38
2023-04-18T11:27:37.125Z,97158.75
2023-04-18T11:29:41.957Z,97161.66
2023-04-18T11:31:58.241Z,97154.25
2023-04-18T11:34:05.086Z,97150.81
2023-04-18T11:36:10.993Z,97155.31
2023-04-18T11:38:17.219Z,97152.66
2023-04-18T11:40:22.088Z,97162.47
2023-04-18T11:42:29.552Z,97156.38
2023-04-18T11:44:36.384Z,97159.03
2023-04-18T11:46:42.054Z,97152.94
2023-04-18T11:48:50.659Z,97156.66
2023-04-18T11:50:55.774Z,97155.59
2023-04-18T11:53:00.540Z,97161.69
2023-04-18T11:55:17.862Z,97161.97
2023-04-18T11:57:25.114Z,97161.69
2023-04-18T11:59:29.902Z,97154.50
2023-04-18T12:01:34.629Z,97159.81
2023-04-18T12:03:39.650Z,97162.22
2023-04-18T12:05:48.675Z,97156.09
2023-04-18T12:07:53.606Z,97157.44
2023-04-18T12:09:58.336Z,97159.00
2023-04-18T12:12:04.482Z,97159.53
2023-04-18T12:14:09.193Z,97157.38
2023-04-18T12:16:15.281Z,97156.59
2023-04-18T12:18:21.670Z,97168.78
2023-04-18T12:20:27.042Z,97163.47
2023-04-18T12:22:49.100Z,97162.66
2023-04-18T12:25:13.013Z,97163.22
2023-04-18T12:27:18.049Z,97157.94
2023-04-18T12:29:22.803Z,97172.00
2023-04-18T12:31:28.893Z,97161.66
2023-04-18T12:33:33.779Z,97162.44
2023-04-18T12:35:38.563Z,97157.44
2023-04-18T12:37:46.115Z,97161.16
2023-04-18T12:39:50.876Z,97154.25
2023-04-18T12:41:55.592Z,97162.22
2023-04-18T12:44:00.534Z,97158.75
2023-04-18T12:46:05.334Z,97156.09
2023-04-18T12:48:10.524Z,97157.97
2023-04-18T12:50:19.152Z,97156.38
2023-04-18T12:52:24.001Z,97163.53
2023-04-18T12:54:31.287Z,97164.59
2023-04-18T12:56:36.639Z,97163.53
2023-04-18T12:58:41.391Z,97157.16
2023-04-18T13:00:46.306Z,97160.63
2023-04-18T13:02:52.717Z,97163.25
2023-04-18T13:04:59.018Z,97160.63
2023-04-18T13:07:04.173Z,97162.22
2023-04-18T13:09:09.534Z,97159.56
2023-04-18T13:11:16.871Z,97157.72
2023-04-18T13:13:21.869Z,97161.66
2023-04-18T13:15:27.760Z,97170.13
2023-04-18T13:17:32.856Z,97161.41
2023-04-18T13:19:37.661Z,97159.53
2023-04-18T13:21:42.454Z,97162.16
2023-04-18T13:23:47.244Z,97158.75
2023-04-18T13:25:52.030Z,97164.03
2023-04-18T13:28:01.132Z,97167.75
2023-04-18T13:30:06.790Z,97170.41
2023-04-18T13:32:12.678Z,97157.94
2023-04-18T13:34:17.805Z,97162.44
2023-04-18T13:36:23.996Z,97161.41
2023-04-18T13:38:30.415Z,97160.31
2023-04-18T13:40:35.130Z,97167.19
2023-04-18T13:42:41.396Z,97162.38
2023-04-18T13:44:50.256Z,97170.34
2023-04-18T13:46:56.482Z,97171.94
2023-04-18T13:49:01.402Z,97170.06
2023-04-18T13:51:07.092Z,97169.28
2023-04-18T13:53:11.825Z,97178.00
2023-04-18T13:55:16.586Z,97178.00
2023-04-18T13:57:22.058Z,97170.88
2023-04-18T13:59:27.190Z,97177.72
2023-04-18T14:01:34.553Z,97169.00
2023-04-18T14:03:42.208Z,97174.00
2023-04-18T14:05:48.655Z,97176.38
2023-04-18T14:07:53.433Z,97179.03
2023-04-18T14:09:58.132Z,97179.03
2023-04-18T14:12:03.084Z,97175.59
2023-04-18T14:14:08.100Z,97179.84
2023-04-18T14:16:12.911Z,97173.72
2023-04-18T14:18:21.994Z,97166.88
2023-04-18T14:20:26.933Z,97176.66
2023-04-18T14:22:31.629Z,97180.13
2023-04-18T14:24:37.904Z,97175.59
2023-04-18T14:26:42.663Z,97174.81
2023-04-18T14:28:47.557Z,97177.97
2023-04-18T14:30:52.305Z,97178.75
2023-04-18T14:32:57.575Z,97172.41
2023-04-18T14:35:07.539Z,97177.69
2023-04-18T14:37:12.393Z,97175.81
2023-04-18T14:39:17.110Z,97178.19
2023-04-18T14:41:21.823Z,97182.44
2023-04-18T14:43:26.590Z,97179.78
2023-04-18T14:45:34.008Z,97177.91
2023-04-18T14:47:39.345Z,97179.50
2023-04-18T14:49:44.314Z,97181.88
2023-04-18T14:51:51.719Z,97183.47
2023-04-18T14:53:56.693Z,97180.81
2023-04-18T14:56:01.384Z,97180.53
2023-04-18T14:58:06.429Z,97178.66
2023-04-18T15:00:12.898Z,97183.66
2023-04-18T15:02:17.747Z,97179.19
2023-04-18T15:04:22.992Z,97182.13
2023-04-18T15:06:28.604Z,97184.47
2023-04-18T15:08:36.237Z,97183.94
2023-04-18T15:10:42.544Z,97187.41
2023-04-18T15:12:47.664Z,97190.06
2023-04-18T15:14:54.031Z,97182.13
2023-04-18T15:16:58.760Z,97183.66
2023-04-18T15:19:03.628Z,97183.66
2023-04-18T15:21:08.636Z,97187.13
2023-04-18T15:23:14.302Z,97184.47
2023-04-18T15:25:22.084Z,97179.19
2023-04-18T15:27:26.974Z,97188.97
2023-04-18T15:29:31.695Z,97190.56
2023-04-18T15:31:39.071Z,97184.47
2023-04-18T15:33:44.142Z,97186.31
2023-04-18T15:35:48.976Z,97188.97
2023-04-18T15:37:54.243Z,97194.06
2023-04-18T15:39:59.264Z,97194.34
2023-04-18T15:42:06.924Z,97187.72
2023-04-18T15:44:12.237Z,97199.09
2023-04-18T15:46:17.253Z,97188.50
2023-04-18T15:48:22.337Z,97193.81
2023-04-18T15:50:27.166Z,97194.63
2023-04-18T15:52:32.041Z,97187.72
2023-04-18T15:54:37.003Z,97201.75
2023-04-18T15:56:44.044Z,97194.63
2023-04-18T15:58:51.335Z,97196.47
2023-04-18T16:00:56.246Z,97198.84
2023-04-18T16:03:01.060Z,97198.84
2023-04-18T16:05:05.948Z,97197.00
2023-04-18T16:07:10.998Z,97204.94
2023-04-18T16:09:16.474Z,97202.28
2023-04-18T16:11:26.241Z,97200.69
2023-04-18T16:13:31.108Z,97203.34
2023-04-18T16:15:41.612Z,97206.00
2023-04-18T16:17:46.822Z,97209.47
2023-04-18T16:19:51.644Z,97198.84
2023-04-18T16:21:56.626Z,97203.88
2023-04-18T16:24:01.335Z,97204.94
2023-04-18T16:26:06.129Z,97207.59
2023-04-18T16:28:10.838Z,97206.00
2023-04-18T16:30:16.385Z,97210.25
2023-04-18T16:32:24.114Z,97208.66
2023-04-18T16:34:29.017Z,97206.00
2023-04-18T16:36:36.418Z,97209.72
2023-04-18T16:38:41.135Z,97206.00
2023-04-18T16:40:45.844Z,97205.22
2023-04-18T16:42:52.929Z,97205.50
2023-04-18T16:44:57.846Z,97206.56
2023-04-18T16:47:05.164Z,97210.28
2023-04-18T16:49:12.541Z,97206.84
2023-04-18T16:51:17.586Z,97219.31
2023-04-18T16:53:22.307Z,97215.84
2023-04-18T16:55:27.264Z,97220.09
2023-04-18T16:57:31.985Z,97216.66
2023-04-18T16:59:37.288Z,97217.72
2023-04-18T17:01:42.149Z,97218.78
2023-04-18T17:03:47.008Z,97212.69
2023-04-18T17:05:54.414Z,97219.06
2023-04-18T17:07:59.485Z,97225.16
2023-04-18T17:10:04.367Z,97230.72
2023-04-18T17:12:09.475Z,97237.09
2023-04-18T17:14:14.765Z,97231.81
2023-04-18T17:16:19.949Z,97231.00
2023-04-18T17:18:24.773Z,97229.44
2023-04-18T17:20:29.890Z,97235.00
2023-04-18T17:22:37.517Z,97227.06
2023-04-18T17:24:42.337Z,97244.03
2023-04-18T17:26:47.606Z,97236.84
2023-04-18T17:28:52.369Z,97239.00
2023-04-18T17:30:57.496Z,97233.69
2023-04-18T17:33:02.441Z,97246.16
2023-04-18T17:35:08.330Z,97241.94
2023-04-18T17:37:14.984Z,97240.34
2023-04-18T17:39:22.818Z,97245.91
2023-04-18T17:41:27.555Z,97248.03
2023-04-18T17:43:32.304Z,97249.09
2023-04-18T17:45:37.461Z,97242.22
2023-04-18T17:47:42.312Z,97249.66
2023-04-18T17:49:47.514Z,97248.84
2023-04-18T17:51:52.721Z,97256.28
2023-04-18T17:53:58.086Z,97256.56
2023-04-18T17:56:05.475Z,97253.69
2023-04-18T17:58:10.290Z,97256.34
2023-04-18T18:00:17.643Z,97261.09
2023-04-18T18:02:23.540Z,97262.16
2023-04-18T18:04:28.493Z,97266.66
2023-04-18T18:06:33.376Z,97265.91
2023-04-18T18:08:38.189Z,97260.88
2023-04-18T18:10:43.264Z,97262.72
2023-04-18T18:12:50.638Z,97277.81
2023-04-18T18:14:57.437Z,97270.16
2023-04-18T18:17:02.214Z,97269.38
2023-04-18T18:19:07.812Z,97281.81
2023-04-18T18:21:13.027Z,97280.22
2023-04-18T18:23:18.154Z,97282.06
2023-04-18T18:25:23.571Z,97285.78
2023-04-18T18:27:28.320Z,97289.53
2023-04-18T18:29:36.074Z,97293.50
2023-04-18T18:31:41.704Z,97294.56
2023-04-18T18:33:46.495Z,97293.00
2023-04-18T18:35:51.345Z,97287.16
2023-04-18T18:37:56.144Z,97288.22
2023-04-18T18:40:01.008Z,97291.94
2023-04-18T18:42:05.780Z,97294.88
2023-04-18T18:44:11.731Z,97289.84
2023-04-18T18:46:20.774Z,97297.53
2023-04-18T18:48:27.045Z,97302.31
2023-04-18T18:50:31.761Z,97304.16
2023-04-18T18:52:36.799Z,97301.50
2023-04-18T18:54:41.644Z,97306.03
2023-04-18T18:56:46.808Z,97304.97
2023-04-18T18:58:51.616Z,97302.88
2023-04-18T19:00:56.792Z,97306.56
2023-04-18T19:03:04.467Z,97307.13
2023-04-18T19:05:12.744Z,97303.41
2023-04-18T19:07:17.611Z,97302.88
2023-04-18T19:09:22.430Z,97306.59
2023-04-18T19:11:28.002Z,97305.81
2023-04-18T19:13:32.912Z,97310.31
2023-04-18T19:15:38.074Z,97302.66
2023-04-18T19:17:42.917Z,97308.22
2023-04-18T19:19:50.496Z,97305.84
2023-04-18T19:21:55.372Z,97298.16
2023-04-18T19:24:00.142Z,97304.53
2023-04-18T19:26:04.909Z,97305.56
2023-04-18T19:28:09.742Z,97301.34
2023-04-18T19:30:15.115Z,97298.69
2023-04-18T19:32:20.784Z,97300.81
2023-04-18T19:34:25.594Z,97294.75
2023-04-18T19:36:33.195Z,97301.88
2023-04-18T19:38:38.090Z,97298.72
2023-04-18T19:40:42.870Z,97297.13
2023-04-18T19:42:47.906Z,97292.91
2023-04-18T19:44:52.720Z,97300.84
2023-04-18T19:46:57.649Z,97298.47
2023-04-18T19:49:02.413Z,97301.13
2023-04-18T19:51:07.182Z,97299.53
2023-04-18T19:53:15.699Z,97299.53
2023-04-18T19:55:20.947Z,97301.91
2023-04-18T19:57:26.488Z,97303.75
2023-04-18T19:59:31.335Z,97300.06
2023-04-18T20:01:36.173Z,97302.19
2023-04-18T20:03:41.724Z,97304.84
2023-04-18T20:05:46.943Z,97303.25
2023-04-18T20:07:51.783Z,97298.75
2023-04-18T20:09:59.233Z,97298.75
2023-04-18T20:12:04.070Z,97299.81
2023-04-18T20:14:10.195Z,97302.47
2023-04-18T20:16:17.041Z,97315.97
2023-04-18T20:18:24.094Z,97306.16
2023-04-18T20:20:29.227Z,97305.38
2023-04-18T20:22:34.006Z,97305.38
2023-04-18T20:24:39.508Z,97305.63
2023-04-18T20:26:46.884Z,97298.50
2023-04-18T20:28:51.776Z,97306.44
2023-04-18T20:30:56.661Z,97297.69
2023-04-18T20:33:01.490Z,97301.94
2023-04-18T20:35:07.548Z,97309.88
2023-04-18T20:37:15.672Z,97304.56
2023-04-18T20:39:20.555Z,97305.38
2023-04-18T20:41:27.491Z,97302.97
2023-04-18T20:43:36.710Z,97302.19
2023-04-18T20:45:42.979Z,97305.63
2023-04-18T20:47:47.928Z,97307.22
2023-04-18T20:49:52.711Z,97298.50
2023-04-18T20:51:57.448Z,97298.50
2023-04-18T20:54:02.346Z,97307.22
2023-04-18T20:56:07.530Z,97308.03
2023-04-18T20:58:12.368Z,97311.72
2023-04-18T21:00:20.629Z,97304.06
2023-04-18T21:02:26.585Z,97305.63
2023-04-18T21:04:32.119Z,97301.41
2023-04-18T21:06:37.006Z,97302.47
2023-04-18T21:08:42.037Z,97304.34
2023-04-18T21:10:46.848Z,97312.53
2023-04-18T21:12:51.613Z,97310.94
2023-04-18T21:14:56.723Z,97313.88
2023-04-18T21:17:04.050Z,97307.78
2023-04-18T21:19:08.950Z,97310.44
2023-04-18T21:21:14.284Z,97313.09
2023-04-18T21:23:19.156Z,97324.44
2023-04-18T21:25:24.062Z,97313.88
2023-04-18T21:27:29.007Z,97315.19
2023-04-18T21:29:33.696Z,97320.75
2023-04-18T21:31:38.632Z,97316.50
2023-04-18T21:33:46.042Z,97316.78
2023-04-18T21:35:50.936Z,97317.06
2023-04-18T21:37:55.759Z,97319.97
2023-04-18T21:40:00.593Z,97318.66
2023-04-18T21:42:05.389Z,97319.72
2023-04-18T21:44:10.837Z,97318.13
2023-04-18T21:46:15.775Z,97321.06
2023-04-18T21:48:21.869Z,97308.88
2023-04-18T21:50:29.542Z,97315.25
2023-04-18T21:52:34.304Z,97319.72
2023-04-18T21:54:40.037Z,97312.06
2023-04-18T21:56:44.922Z,97316.84
2023-04-18T21:58:49.756Z,97316.84
2023-04-18T22:00:54.686Z,97309.19
2023-04-18T22:02:59.609Z,97312.09
2023-04-18T22:05:04.547Z,97317.66
2023-04-18T22:07:12.611Z,97311.56
2023-04-18T22:09:19.422Z,97300.97
2023-04-18T22:11:24.412Z,97306.25
2023-04-18T22:13:33.140Z,97302.06
2023-04-18T22:15:39.419Z,97298.59
2023-04-18T22:17:45.062Z,97295.19
2023-04-18T22:19:50.610Z,97299.41
2023-04-18T22:21:55.441Z,97295.97
2023-04-18T22:24:03.044Z,97290.94
2023-04-18T22:26:08.054Z,97298.88
2023-04-18T22:28:12.807Z,97296.22
2023-04-18T22:30:18.095Z,97305.22
2023-04-18T22:32:22.857Z,97298.88
2023-04-18T22:34:27.880Z,97298.09
2023-04-18T22:36:32.625Z,97293.84
2023-04-18T22:38:37.443Z,97295.72
2023-04-18T22:40:44.821Z,97293.34
2023-04-18T22:42:52.011Z,97298.38
2023-04-18T22:44:56.792Z,97294.13
2023-04-18T22:47:03.175Z,97299.41
2023-04-18T22:49:08.396Z,97296.00
2023-04-18T22:51:14.352Z,97294.13
2023-04-18T22:53:19.245Z,97289.63
2023-04-18T22:55:24.064Z,97288.06
2023-04-18T22:57:31.499Z,97289.88
2023-04-18T22:59:36.647Z,97292.53
2023-04-18T23:01:41.739Z,97293.34
2023-04-18T23:03:46.680Z,97288.84
2023-04-18T23:05:51.623Z,97294.13
2023-04-18T23:07:58.284Z,97296.75
2023-04-18T23:10:04.379Z,97286.47
2023-04-18T23:12:09.247Z,97289.88
2023-04-18T23:14:17.433Z,97289.88
2023-04-18T23:16:23.223Z,97290.97
2023-04-18T23:18:27.982Z,97285.69
2023-04-18T23:20:32.784Z,97287.25
2023-04-18T23:22:37.548Z,97288.84
2023-04-18T23:24:42.389Z,97290.69
2023-04-18T23:26:47.322Z,97288.06
2023-04-18T23:28:52.180Z,97286.19
2023-04-18T23:30:59.616Z,97287.50
2023-04-18T23:33:04.510Z,97282.75
2023-04-18T23:35:09.689Z,97283.81
2023-04-18T23:37:14.508Z,97284.59
2023-04-18T23:39:21.703Z,97281.94
2023-04-18T23:41:26.780Z,97277.47
2023-04-18T23:43:31.529Z,97279.31
2023-04-18T23:45:36.759Z,97280.13
2023-04-18T23:47:44.308Z,97277.75
2023-04-18T23:49:49.277Z,97276.66
2023-04-18T23:51:54.249Z,97276.66
2023-04-18T23:53:59.097Z,97278.25
2023-04-18T23:56:04.178Z,97271.38
2023-04-18T23:58:09.007Z,97270.59
